sensor_id;sensor_type;location;lat;lon;timestamp;P1;durP1;ratioP1;P2;durP2;ratioP2
13034;SDS011;6584;48.022;11.810;2023-02-28T00:01:18;5.47;;;3.00;;
13034;SDS011;6584;48.022;11.810;2023-02-28T00:03:44;4.03;;;3.20;;
13034;SDS011;6584;48.022;11.810;2023-02-28T00:06:09;6.00;;;3.22;;
13034;SDS011;6584;48.022;11.810;2023-02-28T00:08:35;3.90;;;3.00;;
13034;SDS011;6584;48.022;11.810;2023-02-28T00:11:05;4.28;;;3.10;;
13034;SDS011;6584;48.022;11.810;2023-02-28T00:13:37;4.97;;;2.97;;
13034;SDS011;6584;48.022;11.810;2023-02-28T00:16:06;3.67;;;3.13;;
13034;SDS011;6584;48.022;11.810;2023-02-28T00:18:34;5.03;;;3.10;;
13034;SDS011;6584;48.022;11.810;2023-02-28T00:21:00;5.28;;;3.30;;
13034;SDS011;6584;48.022;11.810;2023-02-28T00:23:26;3.60;;;2.95;;
13034;SDS011;6584;48.022;11.810;2023-02-28T00:25:52;5.18;;;3.03;;
13034;SDS011;6584;48.022;11.810;2023-02-28T00:28:17;3.85;;;3.10;;
13034;SDS011;6584;48.022;11.810;2023-02-28T00:30:43;6.43;;;3.28;;
13034;SDS011;6584;48.022;11.810;2023-02-28T00:33:09;5.60;;;3.45;;
13034;SDS011;6584;48.022;11.810;2023-02-28T00:35:35;5.45;;;3.30;;
13034;SDS011;6584;48.022;11.810;2023-02-28T00:38:01;5.78;;;3.45;;
13034;SDS011;6584;48.022;11.810;2023-02-28T00:40:27;5.03;;;3.20;;
13034;SDS011;6584;48.022;11.810;2023-02-28T00:42:52;5.18;;;3.50;;
13034;SDS011;6584;48.022;11.810;2023-02-28T00:45:18;6.45;;;3.58;;
13034;SDS011;6584;48.022;11.810;2023-02-28T00:47:44;5.43;;;3.17;;
13034;SDS011;6584;48.022;11.810;2023-02-28T00:50:11;5.40;;;3.30;;
13034;SDS011;6584;48.022;11.810;2023-02-28T00:52:37;4.60;;;3.47;;
13034;SDS011;6584;48.022;11.810;2023-02-28T00:55:02;4.75;;;3.25;;
13034;SDS011;6584;48.022;11.810;2023-02-28T00:57:28;5.90;;;3.25;;
13034;SDS011;6584;48.022;11.810;2023-02-28T00:59:53;6.57;;;3.72;;
13034;SDS011;6584;48.022;11.810;2023-02-28T01:02:20;4.97;;;3.20;;
13034;SDS011;6584;48.022;11.810;2023-02-28T01:04:46;4.05;;;3.13;;
13034;SDS011;6584;48.022;11.810;2023-02-28T01:07:12;5.57;;;3.30;;
13034;SDS011;6584;48.022;11.810;2023-02-28T01:09:39;3.33;;;3.03;;
13034;SDS011;6584;48.022;11.810;2023-02-28T01:12:06;3.53;;;3.00;;
13034;SDS011;6584;48.022;11.810;2023-02-28T01:14:32;6.88;;;3.58;;
13034;SDS011;6584;48.022;11.810;2023-02-28T01:16:59;6.57;;;3.47;;
13034;SDS011;6584;48.022;11.810;2023-02-28T01:19:25;4.32;;;3.60;;
13034;SDS011;6584;48.022;11.810;2023-02-28T01:21:50;3.67;;;3.13;;
13034;SDS011;6584;48.022;11.810;2023-02-28T01:24:16;5.03;;;3.30;;
13034;SDS011;6584;48.022;11.810;2023-02-28T01:26:42;4.35;;;3.35;;
13034;SDS011;6584;48.022;11.810;2023-02-28T01:29:07;4.50;;;3.28;;
13034;SDS011;6584;48.022;11.810;2023-02-28T01:31:33;4.10;;;3.17;;
13034;SDS011;6584;48.022;11.810;2023-02-28T01:33:58;4.95;;;3.95;;
13034;SDS011;6584;48.022;11.810;2023-02-28T01:36:24;5.45;;;3.60;;
13034;SDS011;6584;48.022;11.810;2023-02-28T01:38:50;5.80;;;3.70;;
13034;SDS011;6584;48.022;11.810;2023-02-28T01:41:18;4.82;;;3.42;;
13034;SDS011;6584;48.022;11.810;2023-02-28T01:46:13;5.65;;;3.90;;
13034;SDS011;6584;48.022;11.810;2023-02-28T01:48:44;5.00;;;3.42;;
13034;SDS011;6584;48.022;11.810;2023-02-28T01:51:15;4.20;;;3.33;;
13034;SDS011;6584;48.022;11.810;2023-02-28T01:53:49;6.03;;;3.80;;
13034;SDS011;6584;48.022;11.810;2023-02-28T01:56:20;5.22;;;3.53;;
13034;SDS011;6584;48.022;11.810;2023-02-28T01:58:52;4.40;;;3.53;;
13034;SDS011;6584;48.022;11.810;2023-02-28T02:01:19;5.13;;;3.60;;
13034;SDS011;6584;48.022;11.810;2023-02-28T02:03:48;4.15;;;3.38;;
13034;SDS011;6584;48.022;11.810;2023-02-28T02:06:24;6.40;;;3.30;;
13034;SDS011;6584;48.022;11.810;2023-02-28T02:08:54;4.63;;;3.25;;
13034;SDS011;6584;48.022;11.810;2023-02-28T02:11:20;4.65;;;3.70;;
13034;SDS011;6584;48.022;11.810;2023-02-28T02:36:04;3.97;;;3.22;;
13034;SDS011;6584;48.022;11.810;2023-02-28T02:38:50;6.20;;;3.50;;
13034;SDS011;6584;48.022;11.810;2023-02-28T02:46:44;5.50;;;4.10;;
13034;SDS011;6584;48.022;11.810;2023-02-28T02:49:15;5.38;;;3.47;;
13034;SDS011;6584;48.022;11.810;2023-02-28T02:51:46;5.40;;;4.20;;
13034;SDS011;6584;48.022;11.810;2023-02-28T02:54:17;6.30;;;4.30;;
13034;SDS011;6584;48.022;11.810;2023-02-28T02:56:48;4.70;;;3.65;;
13034;SDS011;6584;48.022;11.810;2023-02-28T02:59:17;6.13;;;4.20;;
13034;SDS011;6584;48.022;11.810;2023-02-28T03:01:48;6.20;;;4.45;;
13034;SDS011;6584;48.022;11.810;2023-02-28T03:04:18;6.10;;;4.68;;
13034;SDS011;6584;48.022;11.810;2023-02-28T03:06:45;9.73;;;5.07;;
13034;SDS011;6584;48.022;11.810;2023-02-28T03:09:11;5.80;;;4.53;;
13034;SDS011;6584;48.022;11.810;2023-02-28T03:11:37;6.90;;;4.80;;
13034;SDS011;6584;48.022;11.810;2023-02-28T03:14:08;7.25;;;4.60;;
13034;SDS011;6584;48.022;11.810;2023-02-28T03:33:20;8.15;;;4.90;;
13034;SDS011;6584;48.022;11.810;2023-02-28T03:35:59;6.32;;;4.57;;
13034;SDS011;6584;48.022;11.810;2023-02-28T03:38:48;6.95;;;4.95;;
13034;SDS011;6584;48.022;11.810;2023-02-28T03:41:20;7.63;;;5.00;;
13034;SDS011;6584;48.022;11.810;2023-02-28T03:43:56;6.85;;;5.40;;
13034;SDS011;6584;48.022;11.810;2023-02-28T03:46:28;7.05;;;5.55;;
13034;SDS011;6584;48.022;11.810;2023-02-28T03:51:41;9.93;;;5.78;;
13034;SDS011;6584;48.022;11.810;2023-02-28T03:54:18;9.10;;;5.95;;
13034;SDS011;6584;48.022;11.810;2023-02-28T03:56:50;7.85;;;5.93;;
13034;SDS011;6584;48.022;11.810;2023-02-28T03:59:26;8.55;;;5.93;;
13034;SDS011;6584;48.022;11.810;2023-02-28T04:01:55;10.93;;;6.70;;
13034;SDS011;6584;48.022;11.810;2023-02-28T04:04:23;7.35;;;6.28;;
13034;SDS011;6584;48.022;11.810;2023-02-28T04:06:49;8.63;;;6.43;;
13034;SDS011;6584;48.022;11.810;2023-02-28T04:09:16;13.13;;;6.78;;
13034;SDS011;6584;48.022;11.810;2023-02-28T04:11:42;7.95;;;6.30;;
13034;SDS011;6584;48.022;11.810;2023-02-28T04:14:20;9.30;;;6.30;;
13034;SDS011;6584;48.022;11.810;2023-02-28T04:16:46;10.70;;;6.55;;
13034;SDS011;6584;48.022;11.810;2023-02-28T04:19:12;9.13;;;6.78;;
13034;SDS011;6584;48.022;11.810;2023-02-28T04:21:46;9.40;;;6.82;;
13034;SDS011;6584;48.022;11.810;2023-02-28T04:24:17;9.95;;;6.95;;
13034;SDS011;6584;48.022;11.810;2023-02-28T04:26:47;10.38;;;6.65;;
13034;SDS011;6584;48.022;11.810;2023-02-28T04:29:17;9.50;;;6.60;;
13034;SDS011;6584;48.022;11.810;2023-02-28T04:31:48;7.78;;;6.60;;
13034;SDS011;6584;48.022;11.810;2023-02-28T04:34:14;8.85;;;6.47;;
13034;SDS011;6584;48.022;11.810;2023-02-28T04:36:40;11.00;;;6.93;;
13034;SDS011;6584;48.022;11.810;2023-02-28T04:39:06;10.68;;;7.28;;
13034;SDS011;6584;48.022;11.810;2023-02-28T04:41:31;10.40;;;7.22;;
13034;SDS011;6584;48.022;11.810;2023-02-28T04:43:57;10.45;;;7.20;;
13034;SDS011;6584;48.022;11.810;2023-02-28T04:46:22;10.85;;;7.60;;
13034;SDS011;6584;48.022;11.810;2023-02-28T04:48:48;9.75;;;7.20;;
13034;SDS011;6584;48.022;11.810;2023-02-28T04:51:14;13.57;;;8.27;;
13034;SDS011;6584;48.022;11.810;2023-02-28T04:53:41;9.85;;;7.57;;
13034;SDS011;6584;48.022;11.810;2023-02-28T04:56:08;10.70;;;7.13;;
13034;SDS011;6584;48.022;11.810;2023-02-28T04:58:37;11.43;;;7.43;;
13034;SDS011;6584;48.022;11.810;2023-02-28T05:03:45;11.18;;;7.63;;
13034;SDS011;6584;48.022;11.810;2023-02-28T05:06:12;16.10;;;9.77;;
13034;SDS011;6584;48.022;11.810;2023-02-28T05:08:38;11.10;;;8.13;;
13034;SDS011;6584;48.022;11.810;2023-02-28T05:11:05;15.13;;;9.60;;
13034;SDS011;6584;48.022;11.810;2023-02-28T05:13:36;13.98;;;9.13;;
13034;SDS011;6584;48.022;11.810;2023-02-28T05:16:02;10.35;;;7.78;;
13034;SDS011;6584;48.022;11.810;2023-02-28T05:18:28;12.43;;;8.85;;
13034;SDS011;6584;48.022;11.810;2023-02-28T05:20:53;12.38;;;8.00;;
13034;SDS011;6584;48.022;11.810;2023-02-28T05:23:19;11.80;;;8.98;;
13034;SDS011;6584;48.022;11.810;2023-02-28T05:25:47;13.32;;;9.43;;
13034;SDS011;6584;48.022;11.810;2023-02-28T05:28:13;12.85;;;9.23;;
13034;SDS011;6584;48.022;11.810;2023-02-28T05:30:39;12.32;;;8.85;;
13034;SDS011;6584;48.022;11.810;2023-02-28T05:33:04;15.68;;;9.45;;
13034;SDS011;6584;48.022;11.810;2023-02-28T05:35:30;12.27;;;8.32;;
13034;SDS011;6584;48.022;11.810;2023-02-28T05:37:56;13.43;;;8.77;;
13034;SDS011;6584;48.022;11.810;2023-02-28T05:40:21;13.30;;;10.00;;
13034;SDS011;6584;48.022;11.810;2023-02-28T05:42:47;13.35;;;9.43;;
13034;SDS011;6584;48.022;11.810;2023-02-28T05:45:14;14.32;;;9.48;;
13034;SDS011;6584;48.022;11.810;2023-02-28T05:47:40;16.08;;;10.18;;
13034;SDS011;6584;48.022;11.810;2023-02-28T05:50:05;13.30;;;9.63;;
13034;SDS011;6584;48.022;11.810;2023-02-28T05:52:32;13.50;;;9.50;;
13034;SDS011;6584;48.022;11.810;2023-02-28T05:54:57;13.27;;;8.90;;
13034;SDS011;6584;48.022;11.810;2023-02-28T05:57:23;13.30;;;9.13;;
13034;SDS011;6584;48.022;11.810;2023-02-28T05:59:49;13.88;;;9.73;;
13034;SDS011;6584;48.022;11.810;2023-02-28T06:02:15;15.88;;;9.98;;
13034;SDS011;6584;48.022;11.810;2023-02-28T06:04:42;12.88;;;9.23;;
13034;SDS011;6584;48.022;11.810;2023-02-28T06:07:08;13.68;;;10.00;;
13034;SDS011;6584;48.022;11.810;2023-02-28T06:09:35;15.38;;;9.63;;
13034;SDS011;6584;48.022;11.810;2023-02-28T06:12:01;16.13;;;10.40;;
13034;SDS011;6584;48.022;11.810;2023-02-28T06:14:30;14.38;;;10.48;;
13034;SDS011;6584;48.022;11.810;2023-02-28T06:16:57;16.90;;;11.25;;
13034;SDS011;6584;48.022;11.810;2023-02-28T06:19:24;15.32;;;11.38;;
13034;SDS011;6584;48.022;11.810;2023-02-28T06:21:54;16.10;;;11.70;;
13034;SDS011;6584;48.022;11.810;2023-02-28T06:24:20;16.42;;;11.30;;
13034;SDS011;6584;48.022;11.810;2023-02-28T06:26:47;16.15;;;10.95;;
13034;SDS011;6584;48.022;11.810;2023-02-28T06:29:13;18.40;;;12.13;;
13034;SDS011;6584;48.022;11.810;2023-02-28T06:31:46;17.48;;;11.95;;
13034;SDS011;6584;48.022;11.810;2023-02-28T06:34:12;16.30;;;12.23;;
13034;SDS011;6584;48.022;11.810;2023-02-28T06:36:39;16.83;;;12.00;;
13034;SDS011;6584;48.022;11.810;2023-02-28T06:39:05;17.15;;;12.18;;
13034;SDS011;6584;48.022;11.810;2023-02-28T06:41:32;16.23;;;11.90;;
13034;SDS011;6584;48.022;11.810;2023-02-28T06:44:02;15.05;;;11.75;;
13034;SDS011;6584;48.022;11.810;2023-02-28T06:46:30;19.27;;;11.07;;
13034;SDS011;6584;48.022;11.810;2023-02-28T06:48:56;20.63;;;11.52;;
13034;SDS011;6584;48.022;11.810;2023-02-28T06:51:22;17.35;;;11.93;;
13034;SDS011;6584;48.022;11.810;2023-02-28T06:53:49;15.80;;;11.45;;
13034;SDS011;6584;48.022;11.810;2023-02-28T06:56:15;17.10;;;10.95;;
13034;SDS011;6584;48.022;11.810;2023-02-28T06:58:42;17.73;;;11.73;;
13034;SDS011;6584;48.022;11.810;2023-02-28T07:01:15;16.23;;;11.60;;
13034;SDS011;6584;48.022;11.810;2023-02-28T07:03:41;16.77;;;12.43;;
13034;SDS011;6584;48.022;11.810;2023-02-28T07:06:06;17.35;;;12.52;;
13034;SDS011;6584;48.022;11.810;2023-02-28T07:08:33;17.45;;;11.55;;
13034;SDS011;6584;48.022;11.810;2023-02-28T07:10:59;18.58;;;13.75;;
13034;SDS011;6584;48.022;11.810;2023-02-28T07:13:25;15.55;;;11.70;;
13034;SDS011;6584;48.022;11.810;2023-02-28T07:16:04;16.13;;;11.43;;
13034;SDS011;6584;48.022;11.810;2023-02-28T07:18:31;19.38;;;12.68;;
13034;SDS011;6584;48.022;11.810;2023-02-28T07:20:57;16.13;;;11.98;;
13034;SDS011;6584;48.022;11.810;2023-02-28T07:23:23;17.50;;;12.18;;
13034;SDS011;6584;48.022;11.810;2023-02-28T07:25:49;18.63;;;14.15;;
13034;SDS011;6584;48.022;11.810;2023-02-28T07:28:15;16.75;;;12.77;;
13034;SDS011;6584;48.022;11.810;2023-02-28T07:30:41;18.20;;;12.32;;
13034;SDS011;6584;48.022;11.810;2023-02-28T07:33:06;15.30;;;11.70;;
13034;SDS011;6584;48.022;11.810;2023-02-28T07:35:32;19.27;;;12.88;;
13034;SDS011;6584;48.022;11.810;2023-02-28T07:37:58;18.23;;;12.63;;
13034;SDS011;6584;48.022;11.810;2023-02-28T07:40:24;17.27;;;12.65;;
13034;SDS011;6584;48.022;11.810;2023-02-28T07:42:50;19.77;;;13.23;;
13034;SDS011;6584;48.022;11.810;2023-02-28T07:45:15;24.45;;;15.55;;
13034;SDS011;6584;48.022;11.810;2023-02-28T07:47:42;20.13;;;12.88;;
13034;SDS011;6584;48.022;11.810;2023-02-28T07:50:09;17.77;;;13.05;;
13034;SDS011;6584;48.022;11.810;2023-02-28T07:52:36;18.52;;;13.70;;
13034;SDS011;6584;48.022;11.810;2023-02-28T07:55:03;19.83;;;13.95;;
13034;SDS011;6584;48.022;11.810;2023-02-28T07:57:30;16.73;;;12.82;;
13034;SDS011;6584;48.022;11.810;2023-02-28T07:59:56;15.75;;;12.48;;
13034;SDS011;6584;48.022;11.810;2023-02-28T08:02:21;19.20;;;13.43;;
13034;SDS011;6584;48.022;11.810;2023-02-28T08:04:47;19.67;;;13.93;;
13034;SDS011;6584;48.022;11.810;2023-02-28T08:07:13;17.80;;;13.70;;
13034;SDS011;6584;48.022;11.810;2023-02-28T08:09:39;18.25;;;13.18;;
13034;SDS011;6584;48.022;11.810;2023-02-28T08:12:05;18.08;;;14.05;;
13034;SDS011;6584;48.022;11.810;2023-02-28T08:14:32;17.45;;;13.15;;
13034;SDS011;6584;48.022;11.810;2023-02-28T08:16:58;21.40;;;13.52;;
13034;SDS011;6584;48.022;11.810;2023-02-28T08:19:23;17.50;;;13.15;;
13034;SDS011;6584;48.022;11.810;2023-02-28T08:21:49;19.10;;;13.35;;
13034;SDS011;6584;48.022;11.810;2023-02-28T08:24:14;17.58;;;12.52;;
13034;SDS011;6584;48.022;11.810;2023-02-28T08:26:40;20.35;;;15.00;;
13034;SDS011;6584;48.022;11.810;2023-02-28T08:29:05;18.42;;;13.25;;
13034;SDS011;6584;48.022;11.810;2023-02-28T08:31:31;18.08;;;13.48;;
13034;SDS011;6584;48.022;11.810;2023-02-28T08:33:57;16.00;;;12.70;;
13034;SDS011;6584;48.022;11.810;2023-02-28T08:36:23;16.70;;;13.02;;
13034;SDS011;6584;48.022;11.810;2023-02-28T08:38:50;17.83;;;12.93;;
13034;SDS011;6584;48.022;11.810;2023-02-28T08:41:15;16.15;;;12.32;;
13034;SDS011;6584;48.022;11.810;2023-02-28T08:43:41;16.27;;;12.77;;
13034;SDS011;6584;48.022;11.810;2023-02-28T08:46:07;18.67;;;13.57;;
13034;SDS011;6584;48.022;11.810;2023-02-28T08:48:35;18.95;;;12.50;;
13034;SDS011;6584;48.022;11.810;2023-02-28T08:51:09;24.35;;;16.80;;
13034;SDS011;6584;48.022;11.810;2023-02-28T08:53:37;17.58;;;13.02;;
13034;SDS011;6584;48.022;11.810;2023-02-28T08:56:06;17.05;;;12.38;;
13034;SDS011;6584;48.022;11.810;2023-02-28T08:58:33;18.02;;;13.32;;
13034;SDS011;6584;48.022;11.810;2023-02-28T09:00:59;17.05;;;12.85;;
13034;SDS011;6584;48.022;11.810;2023-02-28T09:03:25;16.48;;;12.05;;
13034;SDS011;6584;48.022;11.810;2023-02-28T09:05:58;17.35;;;12.45;;
13034;SDS011;6584;48.022;11.810;2023-02-28T09:08:25;19.60;;;14.90;;
13034;SDS011;6584;48.022;11.810;2023-02-28T09:10:52;17.42;;;13.05;;
13034;SDS011;6584;48.022;11.810;2023-02-28T09:13:19;18.42;;;13.77;;
13034;SDS011;6584;48.022;11.810;2023-02-28T09:15:45;17.50;;;13.80;;
13034;SDS011;6584;48.022;11.810;2023-02-28T09:18:10;26.63;;;18.75;;
13034;SDS011;6584;48.022;11.810;2023-02-28T09:20:39;26.15;;;19.15;;
13034;SDS011;6584;48.022;11.810;2023-02-28T09:23:06;17.17;;;13.73;;
13034;SDS011;6584;48.022;11.810;2023-02-28T09:25:33;18.55;;;13.35;;
13034;SDS011;6584;48.022;11.810;2023-02-28T09:27:59;18.73;;;13.52;;
13034;SDS011;6584;48.022;11.810;2023-02-28T09:30:25;18.63;;;12.63;;
13034;SDS011;6584;48.022;11.810;2023-02-28T09:32:50;20.33;;;15.73;;
13034;SDS011;6584;48.022;11.810;2023-02-28T09:35:17;17.52;;;13.40;;
13034;SDS011;6584;48.022;11.810;2023-02-28T09:37:43;18.35;;;13.30;;
13034;SDS011;6584;48.022;11.810;2023-02-28T09:40:10;19.55;;;14.20;;
13034;SDS011;6584;48.022;11.810;2023-02-28T09:42:37;17.30;;;13.48;;
13034;SDS011;6584;48.022;11.810;2023-02-28T09:45:06;18.35;;;13.68;;
13034;SDS011;6584;48.022;11.810;2023-02-28T09:47:45;15.80;;;12.52;;
13034;SDS011;6584;48.022;11.810;2023-02-28T09:52:51;17.52;;;13.00;;
13034;SDS011;6584;48.022;11.810;2023-02-28T09:55:20;15.73;;;12.77;;
13034;SDS011;6584;48.022;11.810;2023-02-28T09:57:55;17.30;;;12.68;;
13034;SDS011;6584;48.022;11.810;2023-02-28T10:00:27;17.17;;;12.68;;
13034;SDS011;6584;48.022;11.810;2023-02-28T10:05:52;16.35;;;13.35;;
13034;SDS011;6584;48.022;11.810;2023-02-28T10:08:26;16.05;;;13.02;;
13034;SDS011;6584;48.022;11.810;2023-02-28T10:11:06;17.73;;;12.93;;
13034;SDS011;6584;48.022;11.810;2023-02-28T10:21:36;19.05;;;13.13;;
13034;SDS011;6584;48.022;11.810;2023-02-28T10:24:23;18.10;;;13.27;;
13034;SDS011;6584;48.022;11.810;2023-02-28T10:27:05;17.80;;;13.07;;
13034;SDS011;6584;48.022;11.810;2023-02-28T10:29:38;17.65;;;13.50;;
13034;SDS011;6584;48.022;11.810;2023-02-28T10:32:08;19.23;;;13.77;;
13034;SDS011;6584;48.022;11.810;2023-02-28T10:34:38;19.25;;;14.18;;
13034;SDS011;6584;48.022;11.810;2023-02-28T10:37:04;16.00;;;13.60;;
13034;SDS011;6584;48.022;11.810;2023-02-28T10:39:43;17.20;;;13.05;;
13034;SDS011;6584;48.022;11.810;2023-02-28T10:42:21;19.80;;;13.88;;
13034;SDS011;6584;48.022;11.810;2023-02-28T10:55:58;16.25;;;12.68;;
13034;SDS011;6584;48.022;11.810;2023-02-28T11:03:54;20.75;;;14.95;;
13034;SDS011;6584;48.022;11.810;2023-02-28T11:06:23;16.25;;;12.73;;
13034;SDS011;6584;48.022;11.810;2023-02-28T11:09:04;17.92;;;13.88;;
13034;SDS011;6584;48.022;11.810;2023-02-28T11:11:42;18.27;;;13.20;;
13034;SDS011;6584;48.022;11.810;2023-02-28T11:14:20;19.88;;;13.40;;
13034;SDS011;6584;48.022;11.810;2023-02-28T11:16:50;17.48;;;13.88;;
13034;SDS011;6584;48.022;11.810;2023-02-28T11:19:26;21.08;;;13.38;;
13034;SDS011;6584;48.022;11.810;2023-02-28T11:21:57;18.17;;;15.10;;
13034;SDS011;6584;48.022;11.810;2023-02-28T11:24:29;21.17;;;14.02;;
13034;SDS011;6584;48.022;11.810;2023-02-28T11:27:01;16.75;;;13.43;;
13034;SDS011;6584;48.022;11.810;2023-02-28T11:29:28;16.73;;;13.25;;
13034;SDS011;6584;48.022;11.810;2023-02-28T11:34:33;18.45;;;14.02;;
13034;SDS011;6584;48.022;11.810;2023-02-28T11:37:00;16.48;;;12.63;;
13034;SDS011;6584;48.022;11.810;2023-02-28T11:39:30;18.17;;;13.50;;
13034;SDS011;6584;48.022;11.810;2023-02-28T11:49:49;16.02;;;13.02;;
13034;SDS011;6584;48.022;11.810;2023-02-28T11:52:36;19.05;;;13.38;;
13034;SDS011;6584;48.022;11.810;2023-02-28T11:55:19;15.82;;;11.55;;
13034;SDS011;6584;48.022;11.810;2023-02-28T12:03:41;15.60;;;12.18;;
13034;SDS011;6584;48.022;11.810;2023-02-28T12:06:22;14.80;;;12.63;;
13034;SDS011;6584;48.022;11.810;2023-02-28T12:14:06;17.23;;;13.25;;
13034;SDS011;6584;48.022;11.810;2023-02-28T12:16:50;17.38;;;13.38;;
13034;SDS011;6584;48.022;11.810;2023-02-28T12:22:30;16.27;;;12.32;;
13034;SDS011;6584;48.022;11.810;2023-02-28T12:27:33;15.30;;;12.18;;
13034;SDS011;6584;48.022;11.810;2023-02-28T12:30:08;16.48;;;13.48;;
13034;SDS011;6584;48.022;11.810;2023-02-28T12:32:50;15.07;;;12.95;;
13034;SDS011;6584;48.022;11.810;2023-02-28T12:35:26;17.42;;;12.80;;
13034;SDS011;6584;48.022;11.810;2023-02-28T12:38:02;16.77;;;13.20;;
13034;SDS011;6584;48.022;11.810;2023-02-28T12:40:33;18.55;;;13.35;;
13034;SDS011;6584;48.022;11.810;2023-02-28T12:43:14;18.33;;;13.93;;
13034;SDS011;6584;48.022;11.810;2023-02-28T12:45:45;19.13;;;13.95;;
13034;SDS011;6584;48.022;11.810;2023-02-28T12:48:29;16.70;;;14.27;;
13034;SDS011;6584;48.022;11.810;2023-02-28T12:51:02;16.73;;;12.98;;
13034;SDS011;6584;48.022;11.810;2023-02-28T12:58:55;15.82;;;12.98;;
13034;SDS011;6584;48.022;11.810;2023-02-28T13:09:59;14.73;;;11.63;;
13034;SDS011;6584;48.022;11.810;2023-02-28T13:12:27;21.52;;;16.23;;
13034;SDS011;6584;48.022;11.810;2023-02-28T13:15:04;27.17;;;21.10;;
13034;SDS011;6584;48.022;11.810;2023-02-28T13:17:47;18.52;;;13.52;;
13034;SDS011;6584;48.022;11.810;2023-02-28T13:20:18;15.00;;;12.77;;
13034;SDS011;6584;48.022;11.810;2023-02-28T13:22:49;14.75;;;12.98;;
13034;SDS011;6584;48.022;11.810;2023-02-28T13:27:58;17.27;;;13.90;;
13034;SDS011;6584;48.022;11.810;2023-02-28T13:36:00;15.02;;;12.90;;
13034;SDS011;6584;48.022;11.810;2023-02-28T13:38:42;18.77;;;13.68;;
13034;SDS011;6584;48.022;11.810;2023-02-28T13:52:07;18.63;;;14.02;;
13034;SDS011;6584;48.022;11.810;2023-02-28T13:54:52;16.33;;;12.98;;
13034;SDS011;6584;48.022;11.810;2023-02-28T13:57:42;17.08;;;13.18;;
13034;SDS011;6584;48.022;11.810;2023-02-28T14:08:50;18.25;;;13.65;;
13034;SDS011;6584;48.022;11.810;2023-02-28T14:11:24;18.67;;;14.10;;
13034;SDS011;6584;48.022;11.810;2023-02-28T14:13:56;18.55;;;15.55;;
13034;SDS011;6584;48.022;11.810;2023-02-28T14:16:34;13.93;;;12.35;;
13034;SDS011;6584;48.022;11.810;2023-02-28T14:19:15;17.95;;;13.70;;
13034;SDS011;6584;48.022;11.810;2023-02-28T14:22:12;22.83;;;16.83;;
13034;SDS011;6584;48.022;11.810;2023-02-28T14:27:27;16.77;;;13.00;;
13034;SDS011;6584;48.022;11.810;2023-02-28T14:38:34;18.17;;;14.63;;
13034;SDS011;6584;48.022;11.810;2023-02-28T14:41:06;19.15;;;14.90;;
13034;SDS011;6584;48.022;11.810;2023-02-28T14:43:47;19.75;;;16.45;;
13034;SDS011;6584;48.022;11.810;2023-02-28T14:46:15;16.88;;;13.73;;
13034;SDS011;6584;48.022;11.810;2023-02-28T14:48:44;18.80;;;15.20;;
13034;SDS011;6584;48.022;11.810;2023-02-28T14:51:17;18.02;;;13.95;;
13034;SDS011;6584;48.022;11.810;2023-02-28T14:53:47;16.73;;;14.45;;
13034;SDS011;6584;48.022;11.810;2023-02-28T14:56:22;15.32;;;12.85;;
13034;SDS011;6584;48.022;11.810;2023-02-28T14:58:54;15.98;;;13.63;;
13034;SDS011;6584;48.022;11.810;2023-02-28T15:01:21;15.65;;;13.18;;
13034;SDS011;6584;48.022;11.810;2023-02-28T15:03:48;15.80;;;14.02;;
13034;SDS011;6584;48.022;11.810;2023-02-28T15:06:23;15.48;;;12.85;;
13034;SDS011;6584;48.022;11.810;2023-02-28T15:09:10;15.45;;;12.55;;
13034;SDS011;6584;48.022;11.810;2023-02-28T15:11:39;15.10;;;12.55;;
13034;SDS011;6584;48.022;11.810;2023-02-28T15:14:05;15.13;;;12.93;;
13034;SDS011;6584;48.022;11.810;2023-02-28T15:16:32;19.52;;;13.20;;
13034;SDS011;6584;48.022;11.810;2023-02-28T15:19:03;18.10;;;13.45;;
13034;SDS011;6584;48.022;11.810;2023-02-28T15:21:34;16.75;;;13.82;;
13034;SDS011;6584;48.022;11.810;2023-02-28T15:26:32;23.42;;;19.27;;
13034;SDS011;6584;48.022;11.810;2023-02-28T15:29:06;20.55;;;15.70;;
13034;SDS011;6584;48.022;11.810;2023-02-28T15:31:46;17.77;;;14.40;;
13034;SDS011;6584;48.022;11.810;2023-02-28T15:34:38;18.08;;;14.07;;
13034;SDS011;6584;48.022;11.810;2023-02-28T15:40:10;19.38;;;15.25;;
13034;SDS011;6584;48.022;11.810;2023-02-28T15:42:41;26.42;;;17.50;;
13034;SDS011;6584;48.022;11.810;2023-02-28T15:48:15;20.75;;;16.67;;
13034;SDS011;6584;48.022;11.810;2023-02-28T15:50:52;19.85;;;15.80;;
13034;SDS011;6584;48.022;11.810;2023-02-28T15:53:22;19.48;;;15.57;;
13034;SDS011;6584;48.022;11.810;2023-02-28T15:55:54;17.02;;;14.30;;
13034;SDS011;6584;48.022;11.810;2023-02-28T15:58:23;19.80;;;14.98;;
13034;SDS011;6584;48.022;11.810;2023-02-28T16:01:36;18.30;;;15.07;;
13034;SDS011;6584;48.022;11.810;2023-02-28T16:03:45;17.17;;;14.55;;
13034;SDS011;6584;48.022;11.810;2023-02-28T16:08:47;16.98;;;14.13;;
13034;SDS011;6584;48.022;11.810;2023-02-28T16:11:16;18.30;;;14.95;;
13034;SDS011;6584;48.022;11.810;2023-02-28T16:13:42;19.45;;;15.65;;
13034;SDS011;6584;48.022;11.810;2023-02-28T16:16:07;19.27;;;15.52;;
13034;SDS011;6584;48.022;11.810;2023-02-28T16:18:33;18.45;;;15.32;;
13034;SDS011;6584;48.022;11.810;2023-02-28T16:20:59;19.75;;;13.98;;
13034;SDS011;6584;48.022;11.810;2023-02-28T16:23:24;17.08;;;14.20;;
13034;SDS011;6584;48.022;11.810;2023-02-28T16:25:50;16.23;;;14.00;;
13034;SDS011;6584;48.022;11.810;2023-02-28T16:28:19;18.17;;;14.20;;
13034;SDS011;6584;48.022;11.810;2023-02-28T16:30:50;18.85;;;13.68;;
13034;SDS011;6584;48.022;11.810;2023-02-28T16:33:16;17.13;;;14.35;;
13034;SDS011;6584;48.022;11.810;2023-02-28T16:35:42;21.02;;;16.92;;
13034;SDS011;6584;48.022;11.810;2023-02-28T16:38:07;20.05;;;16.88;;
13034;SDS011;6584;48.022;11.810;2023-02-28T16:40:33;18.48;;;16.20;;
13034;SDS011;6584;48.022;11.810;2023-02-28T16:43:01;21.92;;;16.20;;
13034;SDS011;6584;48.022;11.810;2023-02-28T16:45:32;22.35;;;18.52;;
13034;SDS011;6584;48.022;11.810;2023-02-28T16:47:58;19.95;;;16.55;;
13034;SDS011;6584;48.022;11.810;2023-02-28T16:50:27;21.13;;;17.55;;
13034;SDS011;6584;48.022;11.810;2023-02-28T16:52:55;21.73;;;16.95;;
13034;SDS011;6584;48.022;11.810;2023-02-28T16:55:21;25.00;;;20.73;;
13034;SDS011;6584;48.022;11.810;2023-02-28T16:57:50;25.42;;;20.52;;
13034;SDS011;6584;48.022;11.810;2023-02-28T17:00:18;26.13;;;19.63;;
13034;SDS011;6584;48.022;11.810;2023-02-28T17:02:44;24.48;;;19.65;;
13034;SDS011;6584;48.022;11.810;2023-02-28T17:05:12;27.42;;;21.05;;
13034;SDS011;6584;48.022;11.810;2023-02-28T17:07:39;25.63;;;20.35;;
13034;SDS011;6584;48.022;11.810;2023-02-28T17:10:25;26.73;;;21.75;;
13034;SDS011;6584;48.022;11.810;2023-02-28T17:12:51;28.23;;;21.40;;
13034;SDS011;6584;48.022;11.810;2023-02-28T17:15:17;23.27;;;18.52;;
13034;SDS011;6584;48.022;11.810;2023-02-28T17:17:44;23.55;;;18.52;;
13034;SDS011;6584;48.022;11.810;2023-02-28T17:20:14;26.77;;;19.65;;
13034;SDS011;6584;48.022;11.810;2023-02-28T17:22:41;20.48;;;17.20;;
13034;SDS011;6584;48.022;11.810;2023-02-28T17:25:07;19.70;;;16.70;;
13034;SDS011;6584;48.022;11.810;2023-02-28T17:27:34;19.35;;;16.30;;
13034;SDS011;6584;48.022;11.810;2023-02-28T17:29:59;21.80;;;16.88;;
13034;SDS011;6584;48.022;11.810;2023-02-28T17:32:25;26.70;;;20.08;;
13034;SDS011;6584;48.022;11.810;2023-02-28T17:34:52;29.30;;;22.13;;